Terminal Aerodrome Forecast
Issued by NWS Pueblo, CO

Home | Current Version | Previous Version | Text Only | Print | Product List | Glossary On
Versions: 1 2 3 4 5 6 7 8 9 10 11 12 13 14 15
000
FTUS45 KPUB 060533
TAFALS
TAF
KALS 060533Z 0606/0706 VRB05KT P6SM SCT090 SCT200
     FM061100 VRB05KT P6SM BKN150
     FM061800 22013KT P6SM SCT080 BKN130
     FM070200 19006KT P6SM BKN060=

USA.gov is the U.S. government's official web portal to all federal, state and local government web resources and services.